Meteo Giornale » Osservazioni meteo Italia » Catania-Fontanarossa

ore: 15:50 - Osservazioni Meteo Catania-Fontanarossa
Lat. 37° 28' N Lon. 15° 3' E Alt. 11 metri s.l.m.

nuvoloso Europe/Rome

28 °C

Nuvoloso

Temp. 24 Ore

22 °C

30 °C

Est

16.7 Km/h

Dew point 23 °C

Umidità 74 %

Visibilità  10 Km

Il sole sorge alle ore 06:21

Il sole tramonta alle ore 19:43

Data e Ora Cielo e Fenomeni T °C DP °C Um. % Pres. hPa Vis. km Vento km/h
Oggi h: 15:50 nuvoloso Nuvoloso 28 23 74 1016 10 E 16.7
Oggi h: 15:20 nuvoloso Nuvoloso 28 23 74 1017 10 E 20.3
Oggi h: 14:50 nuvoloso Nuvoloso 30 22 62 1017 10 E 24
Oggi h: 14:20 poco_nuvoloso Poco Nuvoloso 30 23 66 1016 10 E/NE 24
Oggi h: 13:50 nuvoloso Nuvoloso 29 24 74 1017 10 E 25.9
Oggi h: 13:20 nuvoloso Nuvoloso 30 24 70 1017 10 E 24
Oggi h: 12:50 nuvoloso Nuvoloso 30 23 66 1017 10 E 22.2
Oggi h: 12:20 poco_nuvoloso Poco Nuvoloso 30 24 70 1017 10 E 18.5
Oggi h: 11:50 poco_nuvoloso Poco Nuvoloso 30 24 70 1017 10 E 14.8
Oggi h: 11:20 nuvoloso Nuvoloso 29 24 74 1018 10 E 13
Oggi h: 10:50 nuvoloso Nuvoloso 29 25 79 1018 10 E 16.7
Oggi h: 10:20 nuvoloso Nuvoloso 29 24 74 1018 10 E/NE 14.8
Oggi h: 09:50 nuvoloso Nuvoloso 29 24 74 1018 10 E 11.1
Oggi h: 08:50 poco_nuvoloso Poco Nuvoloso 29 21 62 1017 10 N 3.7
Oggi h: 08:20 nuvoloso Nuvoloso 27 17 54 1017 10 SO 7.4
Oggi h: 07:50 nuvoloso Nuvoloso 24 18 69 1017 10 O 7.4
Oggi h: 07:20 poco_nuvoloso Poco Nuvoloso 24 18 69 1017 10 N 5.5
Oggi h: 06:50 sereno Sereno 23 18 73 1017 10 O 11.1
Oggi h: 06:20 sereno Sereno 22 19 83 1017 10 O 9.3
Oggi h: 05:50 sereno Sereno 22 19 83 1016 10 O 9.3
Oggi h: 05:20 sereno Sereno 22 19 83 1016 10 O 9.3
Oggi h: 04:50 sereno Sereno 26 22 78 1016 10 N/NE 7.4
Oggi h: 04:20 sereno Sereno 26 21 73 1016 10 NE 11.1
Oggi h: 03:50 sereno Sereno 22 19 83 1016 10 N 1.8
Oggi h: 03:20 sereno Sereno 23 19 78 1016 10 O 7.4
Oggi h: 02:50 sereno Sereno 23 20 83 1016 10 N 3.7
Oggi h: 01:50 sereno Sereno 25 20 73 1016 10 O/SO 11.1
Oggi h: 01:20 sereno Sereno 25 21 78 1016 10 O/SO 16.7
Oggi h: 00:50 sereno Sereno 25 22 83 1017 10 O/SO 14.8
Oggi h: 00:20 nuvoloso Nuvoloso 25 23 88 1017 10 O 14.8
Ieri h: 23:50 sereno Sereno 26 23 83 1017 10 O 13
Ieri h: 23:20 sereno Sereno 25 23 88 1017 10 O 11.1
Ieri h: 22:50 sereno Sereno 27 24 83 1017 10 N 5.5
Ieri h: 22:20 sereno Sereno 27 24 83 1017 10 N 1.8
Ieri h: 21:50 nuvoloso Nuvoloso 27 24 83 1017 10 N 3.7
Ieri h: 21:20 nuvoloso Nuvoloso 27 24 83 1017 10 N 3.7
Ieri h: 20:50 nuvoloso Nuvoloso 27 24 83 1016 10 N 3.7
Ieri h: 20:20 nuvoloso Nuvoloso 27 24 83 1016 10 N 5.5
Ieri h: 19:50 nuvoloso Nuvoloso 28 24 78 1016 10 E/SE 9.3
Ieri h: 19:20 nuvoloso Nuvoloso 28 24 78 1016 10 E 13
Ieri h: 18:50 nuvoloso Nuvoloso 29 23 70 1016 10 E 14.8
Ieri h: 18:20 nuvoloso Nuvoloso 29 23 70 1016 10 E/SE 16.7
Ieri h: 17:50 poco_nuvoloso Poco Nuvoloso 29 23 70 1016 10 E 18.5
Ieri h: 17:20 sereno Sereno 30 23 66 1016 10 E 22.2
Ieri h: 16:50 sereno Sereno 30 23 66 1016 10 E 20.3